sensor_id;sensor_type;location;lat;lon;timestamp;temperature;humidity
15231;DHT22;32569;51.762;8.564;2023-02-01T00:01:06;4.60;99.90
15231;DHT22;32569;51.762;8.564;2023-02-01T00:03:33;4.50;99.90
15231;DHT22;32569;51.762;8.564;2023-02-01T00:06:02;4.50;99.90
15231;DHT22;32569;51.762;8.564;2023-02-01T00:08:28;4.50;99.90
15231;DHT22;32569;51.762;8.564;2023-02-01T00:10:59;4.50;99.90
15231;DHT22;32569;51.762;8.564;2023-02-01T00:13:28;4.50;99.90
15231;DHT22;32569;51.762;8.564;2023-02-01T00:15:55;4.50;99.90
15231;DHT22;32569;51.762;8.564;2023-02-01T00:18:21;4.50;99.90
15231;DHT22;32569;51.762;8.564;2023-02-01T00:20:55;4.50;99.90
15231;DHT22;32569;51.762;8.564;2023-02-01T00:23:23;4.50;99.90
15231;DHT22;32569;51.762;8.564;2023-02-01T00:25:53;4.50;99.90
15231;DHT22;32569;51.762;8.564;2023-02-01T00:28:19;4.50;99.90
15231;DHT22;32569;51.762;8.564;2023-02-01T00:30:46;4.60;99.90
15231;DHT22;32569;51.762;8.564;2023-02-01T00:33:12;4.60;99.90
15231;DHT22;32569;51.762;8.564;2023-02-01T00:35:39;4.50;99.90
15231;DHT22;32569;51.762;8.564;2023-02-01T00:38:06;4.60;99.90
15231;DHT22;32569;51.762;8.564;2023-02-01T00:40:34;4.60;99.90
15231;DHT22;32569;51.762;8.564;2023-02-01T00:43:00;4.60;99.90
15231;DHT22;32569;51.762;8.564;2023-02-01T00:45:27;4.60;99.90
15231;DHT22;32569;51.762;8.564;2023-02-01T00:47:53;4.60;99.90
15231;DHT22;32569;51.762;8.564;2023-02-01T00:50:20;4.60;99.90
15231;DHT22;32569;51.762;8.564;2023-02-01T00:52:52;4.60;99.90
15231;DHT22;32569;51.762;8.564;2023-02-01T00:55:19;4.70;99.90
15231;DHT22;32569;51.762;8.564;2023-02-01T00:57:47;4.70;99.90
15231;DHT22;32569;51.762;8.564;2023-02-01T01:00:15;4.70;99.90
15231;DHT22;32569;51.762;8.564;2023-02-01T01:02:45;4.70;99.90
15231;DHT22;32569;51.762;8.564;2023-02-01T01:05:14;4.70;99.90
15231;DHT22;32569;51.762;8.564;2023-02-01T01:07:41;4.70;99.90
15231;DHT22;32569;51.762;8.564;2023-02-01T01:10:08;4.70;99.90
15231;DHT22;32569;51.762;8.564;2023-02-01T01:12:35;4.70;99.90
15231;DHT22;32569;51.762;8.564;2023-02-01T01:15:07;4.70;99.90
15231;DHT22;32569;51.762;8.564;2023-02-01T01:17:34;4.70;99.90
15231;DHT22;32569;51.762;8.564;2023-02-01T01:20:00;4.70;99.90
15231;DHT22;32569;51.762;8.564;2023-02-01T01:22:27;4.70;99.90
15231;DHT22;32569;51.762;8.564;2023-02-01T01:24:54;4.60;99.90
15231;DHT22;32569;51.762;8.564;2023-02-01T01:27:20;4.70;99.90
15231;DHT22;32569;51.762;8.564;2023-02-01T01:29:49;4.70;99.90
15231;DHT22;32569;51.762;8.564;2023-02-01T01:32:17;4.70;99.90
15231;DHT22;32569;51.762;8.564;2023-02-01T01:34:44;4.70;99.90
15231;DHT22;32569;51.762;8.564;2023-02-01T01:37:10;4.70;99.90
15231;DHT22;32569;51.762;8.564;2023-02-01T01:39:37;4.70;99.90
15231;DHT22;32569;51.762;8.564;2023-02-01T01:42:04;4.80;99.90
15231;DHT22;32569;51.762;8.564;2023-02-01T01:44:56;4.70;99.90
15231;DHT22;32569;51.762;8.564;2023-02-01T01:47:26;4.80;99.90
15231;DHT22;32569;51.762;8.564;2023-02-01T01:49:55;4.80;99.90
15231;DHT22;32569;51.762;8.564;2023-02-01T01:52:22;4.80;99.90
15231;DHT22;32569;51.762;8.564;2023-02-01T01:54:53;4.80;99.90
15231;DHT22;32569;51.762;8.564;2023-02-01T01:57:24;4.90;99.90
15231;DHT22;32569;51.762;8.564;2023-02-01T01:59:56;4.90;99.90
15231;DHT22;32569;51.762;8.564;2023-02-01T02:02:27;4.90;99.90
15231;DHT22;32569;51.762;8.564;2023-02-01T02:04:53;4.90;99.90
15231;DHT22;32569;51.762;8.564;2023-02-01T02:07:30;4.90;99.90
15231;DHT22;32569;51.762;8.564;2023-02-01T02:09:58;5.00;99.90
15231;DHT22;32569;51.762;8.564;2023-02-01T02:12:28;5.00;99.90
15231;DHT22;32569;51.762;8.564;2023-02-01T02:14:54;5.00;99.90
15231;DHT22;32569;51.762;8.564;2023-02-01T02:17:31;5.00;99.90
15231;DHT22;32569;51.762;8.564;2023-02-01T02:20:22;5.00;99.90
15231;DHT22;32569;51.762;8.564;2023-02-01T02:26:18;5.00;99.90
15231;DHT22;32569;51.762;8.564;2023-02-01T02:29:29;5.00;99.90
15231;DHT22;32569;51.762;8.564;2023-02-01T02:32:16;5.00;99.90
15231;DHT22;32569;51.762;8.564;2023-02-01T02:34:53;5.10;99.90
15231;DHT22;32569;51.762;8.564;2023-02-01T02:37:28;5.10;99.90
15231;DHT22;32569;51.762;8.564;2023-02-01T02:40:04;5.10;99.90
15231;DHT22;32569;51.762;8.564;2023-02-01T02:42:37;5.10;99.90
15231;DHT22;32569;51.762;8.564;2023-02-01T02:45:27;5.10;99.90
15231;DHT22;32569;51.762;8.564;2023-02-01T02:48:19;5.10;99.90
15231;DHT22;32569;51.762;8.564;2023-02-01T02:50:53;5.10;99.90
15231;DHT22;32569;51.762;8.564;2023-02-01T02:53:41;5.10;99.90
15231;DHT22;32569;51.762;8.564;2023-02-01T02:56:30;5.10;99.90
15231;DHT22;32569;51.762;8.564;2023-02-01T02:59:17;5.10;99.90
15231;DHT22;32569;51.762;8.564;2023-02-01T03:02:25;5.10;99.90
15231;DHT22;32569;51.762;8.564;2023-02-01T03:05:10;5.10;99.90
15231;DHT22;32569;51.762;8.564;2023-02-01T03:08:15;5.10;99.90
15231;DHT22;32569;51.762;8.564;2023-02-01T03:10:53;5.10;99.90
15231;DHT22;32569;51.762;8.564;2023-02-01T03:13:28;5.10;99.90
15231;DHT22;32569;51.762;8.564;2023-02-01T03:16:00;5.10;99.90
15231;DHT22;32569;51.762;8.564;2023-02-01T03:18:35;5.10;99.90
15231;DHT22;32569;51.762;8.564;2023-02-01T03:21:06;5.10;99.90
15231;DHT22;32569;51.762;8.564;2023-02-01T03:23:38;5.10;99.90
15231;DHT22;32569;51.762;8.564;2023-02-01T03:26:08;5.10;99.90
15231;DHT22;32569;51.762;8.564;2023-02-01T03:28:39;5.10;99.90
15231;DHT22;32569;51.762;8.564;2023-02-01T03:31:12;5.10;99.90
15231;DHT22;32569;51.762;8.564;2023-02-01T03:33:39;5.10;99.90
15231;DHT22;32569;51.762;8.564;2023-02-01T03:36:15;5.10;99.90
15231;DHT22;32569;51.762;8.564;2023-02-01T03:38:49;5.10;99.90
15231;DHT22;32569;51.762;8.564;2023-02-01T03:41:22;5.20;99.90
15231;DHT22;32569;51.762;8.564;2023-02-01T03:43:53;5.20;99.90
15231;DHT22;32569;51.762;8.564;2023-02-01T03:46:26;5.20;99.90
15231;DHT22;32569;51.762;8.564;2023-02-01T03:49:00;5.20;99.90
15231;DHT22;32569;51.762;8.564;2023-02-01T03:51:28;5.20;99.90
15231;DHT22;32569;51.762;8.564;2023-02-01T03:53:58;5.20;99.90
15231;DHT22;32569;51.762;8.564;2023-02-01T03:56:27;5.20;99.90
15231;DHT22;32569;51.762;8.564;2023-02-01T03:58:55;5.20;99.90
15231;DHT22;32569;51.762;8.564;2023-02-01T04:01:26;5.20;99.90
15231;DHT22;32569;51.762;8.564;2023-02-01T04:03:57;5.20;99.90
15231;DHT22;32569;51.762;8.564;2023-02-01T04:06:24;5.20;99.90
15231;DHT22;32569;51.762;8.564;2023-02-01T04:08:51;5.20;99.90
15231;DHT22;32569;51.762;8.564;2023-02-01T04:11:22;5.20;99.90
15231;DHT22;32569;51.762;8.564;2023-02-01T04:13:52;5.20;99.90
15231;DHT22;32569;51.762;8.564;2023-02-01T04:16:18;5.20;99.90
15231;DHT22;32569;51.762;8.564;2023-02-01T04:18:45;5.20;99.90
15231;DHT22;32569;51.762;8.564;2023-02-01T04:21:11;5.30;99.90
15231;DHT22;32569;51.762;8.564;2023-02-01T04:23:38;5.20;99.90
15231;DHT22;32569;51.762;8.564;2023-02-01T04:26:05;5.20;99.90
15231;DHT22;32569;51.762;8.564;2023-02-01T04:28:33;5.30;99.90
15231;DHT22;32569;51.762;8.564;2023-02-01T04:31:00;5.30;99.90
15231;DHT22;32569;51.762;8.564;2023-02-01T04:33:26;5.30;99.90
15231;DHT22;32569;51.762;8.564;2023-02-01T04:35:53;5.30;99.90
15231;DHT22;32569;51.762;8.564;2023-02-01T04:38:20;5.30;99.90
15231;DHT22;32569;51.762;8.564;2023-02-01T04:40:47;5.30;99.90
15231;DHT22;32569;51.762;8.564;2023-02-01T04:43:14;5.30;99.90
15231;DHT22;32569;51.762;8.564;2023-02-01T04:45:46;5.30;99.90
15231;DHT22;32569;51.762;8.564;2023-02-01T04:48:13;5.30;99.90
15231;DHT22;32569;51.762;8.564;2023-02-01T04:50:40;5.40;99.90
15231;DHT22;32569;51.762;8.564;2023-02-01T04:53:07;5.40;99.90
15231;DHT22;32569;51.762;8.564;2023-02-01T04:55:33;5.40;99.90
15231;DHT22;32569;51.762;8.564;2023-02-01T04:58:00;5.40;99.90
15231;DHT22;32569;51.762;8.564;2023-02-01T05:00:27;5.40;99.90
15231;DHT22;32569;51.762;8.564;2023-02-01T05:02:54;5.50;99.90
15231;DHT22;32569;51.762;8.564;2023-02-01T05:05:21;5.50;99.90
15231;DHT22;32569;51.762;8.564;2023-02-01T05:07:48;5.50;99.90
15231;DHT22;32569;51.762;8.564;2023-02-01T05:10:15;5.50;99.90
15231;DHT22;32569;51.762;8.564;2023-02-01T05:12:43;5.50;99.90
15231;DHT22;32569;51.762;8.564;2023-02-01T05:15:27;5.50;99.90
15231;DHT22;32569;51.762;8.564;2023-02-01T05:17:55;5.50;99.90
15231;DHT22;32569;51.762;8.564;2023-02-01T05:20:22;5.50;99.90
15231;DHT22;32569;51.762;8.564;2023-02-01T05:22:49;5.50;99.90
15231;DHT22;32569;51.762;8.564;2023-02-01T05:25:16;5.50;99.90
15231;DHT22;32569;51.762;8.564;2023-02-01T05:27:42;5.50;99.90
15231;DHT22;32569;51.762;8.564;2023-02-01T05:30:10;5.50;99.90
15231;DHT22;32569;51.762;8.564;2023-02-01T05:32:38;5.50;99.90
15231;DHT22;32569;51.762;8.564;2023-02-01T05:35:07;5.50;99.90
15231;DHT22;32569;51.762;8.564;2023-02-01T05:37:34;5.50;99.90
15231;DHT22;32569;51.762;8.564;2023-02-01T05:40:00;5.50;99.90
15231;DHT22;32569;51.762;8.564;2023-02-01T05:42:27;5.50;99.90
15231;DHT22;32569;51.762;8.564;2023-02-01T05:44:54;5.50;99.90
15231;DHT22;32569;51.762;8.564;2023-02-01T05:47:20;5.50;99.90
15231;DHT22;32569;51.762;8.564;2023-02-01T05:49:47;5.50;99.90
15231;DHT22;32569;51.762;8.564;2023-02-01T05:52:15;5.40;99.90
15231;DHT22;32569;51.762;8.564;2023-02-01T05:54:44;5.40;99.90
15231;DHT22;32569;51.762;8.564;2023-02-01T05:57:11;5.40;99.90
15231;DHT22;32569;51.762;8.564;2023-02-01T05:59:38;5.40;99.90
15231;DHT22;32569;51.762;8.564;2023-02-01T06:02:07;5.40;99.90
15231;DHT22;32569;51.762;8.564;2023-02-01T06:04:35;5.40;99.90
15231;DHT22;32569;51.762;8.564;2023-02-01T06:07:02;5.40;99.90
15231;DHT22;32569;51.762;8.564;2023-02-01T06:09:30;5.40;99.90
15231;DHT22;32569;51.762;8.564;2023-02-01T06:11:57;5.40;99.90
15231;DHT22;32569;51.762;8.564;2023-02-01T06:14:23;5.40;99.90
15231;DHT22;32569;51.762;8.564;2023-02-01T06:16:50;5.40;99.90
15231;DHT22;32569;51.762;8.564;2023-02-01T06:19:16;5.50;99.90
15231;DHT22;32569;51.762;8.564;2023-02-01T06:21:49;5.50;99.90
15231;DHT22;32569;51.762;8.564;2023-02-01T06:24:16;5.40;99.90
15231;DHT22;32569;51.762;8.564;2023-02-01T06:26:44;5.50;99.90
15231;DHT22;32569;51.762;8.564;2023-02-01T06:29:11;5.50;99.90
15231;DHT22;32569;51.762;8.564;2023-02-01T06:31:41;5.50;99.90
15231;DHT22;32569;51.762;8.564;2023-02-01T06:34:09;5.50;99.90
15231;DHT22;32569;51.762;8.564;2023-02-01T06:36:38;5.50;99.90
15231;DHT22;32569;51.762;8.564;2023-02-01T06:39:08;5.50;99.90
15231;DHT22;32569;51.762;8.564;2023-02-01T06:41:34;5.50;99.90
15231;DHT22;32569;51.762;8.564;2023-02-01T06:44:02;5.50;99.90
15231;DHT22;32569;51.762;8.564;2023-02-01T06:46:29;5.50;99.90
15231;DHT22;32569;51.762;8.564;2023-02-01T06:48:56;5.50;99.90
15231;DHT22;32569;51.762;8.564;2023-02-01T06:51:24;5.60;99.90
15231;DHT22;32569;51.762;8.564;2023-02-01T06:53:51;5.60;99.90
15231;DHT22;32569;51.762;8.564;2023-02-01T06:56:18;5.60;99.90
15231;DHT22;32569;51.762;8.564;2023-02-01T06:58:45;5.60;99.90
15231;DHT22;32569;51.762;8.564;2023-02-01T07:01:14;5.50;99.90
15231;DHT22;32569;51.762;8.564;2023-02-01T07:03:41;5.60;99.90
15231;DHT22;32569;51.762;8.564;2023-02-01T07:06:11;5.60;99.90
15231;DHT22;32569;51.762;8.564;2023-02-01T07:08:38;5.50;99.90
15231;DHT22;32569;51.762;8.564;2023-02-01T07:11:07;5.60;99.90
15231;DHT22;32569;51.762;8.564;2023-02-01T07:13:34;5.60;99.90
15231;DHT22;32569;51.762;8.564;2023-02-01T07:16:02;5.60;99.90
15231;DHT22;32569;51.762;8.564;2023-02-01T07:18:31;5.60;99.90
15231;DHT22;32569;51.762;8.564;2023-02-01T07:20:58;5.60;99.90
15231;DHT22;32569;51.762;8.564;2023-02-01T07:23:28;5.60;99.90
15231;DHT22;32569;51.762;8.564;2023-02-01T07:25:55;5.60;99.90
15231;DHT22;32569;51.762;8.564;2023-02-01T07:28:25;5.60;99.90
15231;DHT22;32569;51.762;8.564;2023-02-01T07:30:52;5.70;99.90
15231;DHT22;32569;51.762;8.564;2023-02-01T07:33:20;5.70;99.90
15231;DHT22;32569;51.762;8.564;2023-02-01T07:35:49;5.70;99.90
15231;DHT22;32569;51.762;8.564;2023-02-01T07:38:16;5.70;99.90
15231;DHT22;32569;51.762;8.564;2023-02-01T07:40:43;5.70;99.90
15231;DHT22;32569;51.762;8.564;2023-02-01T07:43:16;5.60;99.90
15231;DHT22;32569;51.762;8.564;2023-02-01T07:45:42;5.70;99.90
15231;DHT22;32569;51.762;8.564;2023-02-01T07:48:12;5.70;99.90
15231;DHT22;32569;51.762;8.564;2023-02-01T07:50:39;5.70;99.90
15231;DHT22;32569;51.762;8.564;2023-02-01T07:53:07;5.70;99.90
15231;DHT22;32569;51.762;8.564;2023-02-01T07:55:33;5.60;99.90
15231;DHT22;32569;51.762;8.564;2023-02-01T07:58:00;5.60;99.90
15231;DHT22;32569;51.762;8.564;2023-02-01T08:00:26;5.70;99.90
15231;DHT22;32569;51.762;8.564;2023-02-01T08:03:11;5.60;99.90
15231;DHT22;32569;51.762;8.564;2023-02-01T08:05:37;5.70;99.90
15231;DHT22;32569;51.762;8.564;2023-02-01T08:08:04;5.70;99.90
15231;DHT22;32569;51.762;8.564;2023-02-01T08:10:33;5.70;99.90
15231;DHT22;32569;51.762;8.564;2023-02-01T08:13:00;5.70;99.90
15231;DHT22;32569;51.762;8.564;2023-02-01T08:15:27;5.70;99.90
15231;DHT22;32569;51.762;8.564;2023-02-01T08:17:54;5.60;99.90
15231;DHT22;32569;51.762;8.564;2023-02-01T08:20:22;5.60;99.90
15231;DHT22;32569;51.762;8.564;2023-02-01T08:22:49;5.60;99.90
15231;DHT22;32569;51.762;8.564;2023-02-01T08:25:16;5.60;99.90
15231;DHT22;32569;51.762;8.564;2023-02-01T08:27:55;5.60;99.90
15231;DHT22;32569;51.762;8.564;2023-02-01T08:30:21;5.70;99.90
15231;DHT22;32569;51.762;8.564;2023-02-01T08:32:51;5.70;99.90
15231;DHT22;32569;51.762;8.564;2023-02-01T08:35:18;5.70;99.90
15231;DHT22;32569;51.762;8.564;2023-02-01T08:37:52;5.70;99.90
15231;DHT22;32569;51.762;8.564;2023-02-01T08:40:19;5.70;99.90
15231;DHT22;32569;51.762;8.564;2023-02-01T08:42:48;5.80;99.90
15231;DHT22;32569;51.762;8.564;2023-02-01T08:45:21;5.70;99.90
15231;DHT22;32569;51.762;8.564;2023-02-01T08:47:49;5.70;99.90
15231;DHT22;32569;51.762;8.564;2023-02-01T08:50:20;5.80;99.90
15231;DHT22;32569;51.762;8.564;2023-02-01T08:52:50;5.80;99.90
15231;DHT22;32569;51.762;8.564;2023-02-01T08:55:20;5.80;99.90
15231;DHT22;32569;51.762;8.564;2023-02-01T08:57:50;5.90;99.90
15231;DHT22;32569;51.762;8.564;2023-02-01T09:00:20;5.90;99.90
15231;DHT22;32569;51.762;8.564;2023-02-01T09:02:52;5.90;99.90
15231;DHT22;32569;51.762;8.564;2023-02-01T09:05:19;5.90;99.90
15231;DHT22;32569;51.762;8.564;2023-02-01T09:07:53;5.90;99.90
15231;DHT22;32569;51.762;8.564;2023-02-01T09:10:20;6.00;99.90
15231;DHT22;32569;51.762;8.564;2023-02-01T09:12:50;6.10;99.90
15231;DHT22;32569;51.762;8.564;2023-02-01T09:15:17;6.10;99.90
15231;DHT22;32569;51.762;8.564;2023-02-01T09:17:44;6.10;99.90
15231;DHT22;32569;51.762;8.564;2023-02-01T09:20:11;6.10;99.90
15231;DHT22;32569;51.762;8.564;2023-02-01T09:22:38;6.10;99.90
15231;DHT22;32569;51.762;8.564;2023-02-01T09:25:06;6.00;99.90
15231;DHT22;32569;51.762;8.564;2023-02-01T09:27:34;6.00;99.90
15231;DHT22;32569;51.762;8.564;2023-02-01T09:30:02;6.00;99.90
15231;DHT22;32569;51.762;8.564;2023-02-01T09:32:28;5.90;99.90
15231;DHT22;32569;51.762;8.564;2023-02-01T09:34:57;5.90;99.90
15231;DHT22;32569;51.762;8.564;2023-02-01T09:37:27;5.90;99.90
15231;DHT22;32569;51.762;8.564;2023-02-01T09:39:57;5.90;99.90
15231;DHT22;32569;51.762;8.564;2023-02-01T09:42:42;5.90;99.90
15231;DHT22;32569;51.762;8.564;2023-02-01T09:45:20;6.00;99.90
15231;DHT22;32569;51.762;8.564;2023-02-01T09:47:54;5.90;99.90
15231;DHT22;32569;51.762;8.564;2023-02-01T09:50:27;5.90;99.90
15231;DHT22;32569;51.762;8.564;2023-02-01T09:53:01;5.90;99.90
15231;DHT22;32569;51.762;8.564;2023-02-01T09:55:35;5.90;99.90
15231;DHT22;32569;51.762;8.564;2023-02-01T09:58:11;5.90;99.90
15231;DHT22;32569;51.762;8.564;2023-02-01T10:00:45;5.90;99.90
15231;DHT22;32569;51.762;8.564;2023-02-01T10:03:19;5.90;99.90
15231;DHT22;32569;51.762;8.564;2023-02-01T10:06:18;5.90;99.90
15231;DHT22;32569;51.762;8.564;2023-02-01T10:08:58;5.90;99.90
15231;DHT22;32569;51.762;8.564;2023-02-01T10:11:35;5.90;99.90
15231;DHT22;32569;51.762;8.564;2023-02-01T10:14:23;5.90;99.90
15231;DHT22;32569;51.762;8.564;2023-02-01T10:16:56;5.90;99.90
15231;DHT22;32569;51.762;8.564;2023-02-01T10:19:37;6.00;99.90
15231;DHT22;32569;51.762;8.564;2023-02-01T10:22:26;5.90;99.90
15231;DHT22;32569;51.762;8.564;2023-02-01T10:25:03;6.00;99.90
15231;DHT22;32569;51.762;8.564;2023-02-01T10:27:34;6.00;99.90
15231;DHT22;32569;51.762;8.564;2023-02-01T10:30:16;6.10;99.90
15231;DHT22;32569;51.762;8.564;2023-02-01T10:32:45;6.10;99.90
15231;DHT22;32569;51.762;8.564;2023-02-01T10:35:17;6.20;99.90
15231;DHT22;32569;51.762;8.564;2023-02-01T10:37:45;6.20;99.90
15231;DHT22;32569;51.762;8.564;2023-02-01T10:40:19;6.20;99.90
15231;DHT22;32569;51.762;8.564;2023-02-01T10:42:47;6.30;99.90
15231;DHT22;32569;51.762;8.564;2023-02-01T10:45:18;6.30;99.90
15231;DHT22;32569;51.762;8.564;2023-02-01T10:47:49;6.30;99.90
15231;DHT22;32569;51.762;8.564;2023-02-01T10:50:30;6.30;99.90
15231;DHT22;32569;51.762;8.564;2023-02-01T10:53:03;6.30;99.90
15231;DHT22;32569;51.762;8.564;2023-02-01T10:55:37;6.20;99.90
15231;DHT22;32569;51.762;8.564;2023-02-01T10:58:06;6.30;99.90
15231;DHT22;32569;51.762;8.564;2023-02-01T11:00:41;6.30;99.90
15231;DHT22;32569;51.762;8.564;2023-02-01T11:03:34;6.30;99.90
15231;DHT22;32569;51.762;8.564;2023-02-01T11:06:09;6.30;99.90
15231;DHT22;32569;51.762;8.564;2023-02-01T11:08:45;6.30;99.90
15231;DHT22;32569;51.762;8.564;2023-02-01T11:11:12;6.30;99.90
15231;DHT22;32569;51.762;8.564;2023-02-01T11:13:40;6.30;99.90
15231;DHT22;32569;51.762;8.564;2023-02-01T11:16:12;6.30;99.90
15231;DHT22;32569;51.762;8.564;2023-02-01T11:18:43;6.30;99.90
15231;DHT22;32569;51.762;8.564;2023-02-01T11:21:10;6.30;99.90
15231;DHT22;32569;51.762;8.564;2023-02-01T11:23:42;6.30;99.90
15231;DHT22;32569;51.762;8.564;2023-02-01T11:26:21;6.30;99.90
15231;DHT22;32569;51.762;8.564;2023-02-01T11:28:53;6.30;99.90
15231;DHT22;32569;51.762;8.564;2023-02-01T11:31:20;6.30;99.90
15231;DHT22;32569;51.762;8.564;2023-02-01T11:33:53;6.30;99.90
15231;DHT22;32569;51.762;8.564;2023-02-01T11:36:22;6.30;99.90
15231;DHT22;32569;51.762;8.564;2023-02-01T11:38:54;6.30;99.90
15231;DHT22;32569;51.762;8.564;2023-02-01T11:41:22;6.40;99.90
15231;DHT22;32569;51.762;8.564;2023-02-01T11:43:55;6.40;99.90
15231;DHT22;32569;51.762;8.564;2023-02-01T11:46:28;6.40;99.90
15231;DHT22;32569;51.762;8.564;2023-02-01T11:49:14;6.40;99.90
15231;DHT22;32569;51.762;8.564;2023-02-01T11:51:53;6.30;99.90
15231;DHT22;32569;51.762;8.564;2023-02-01T11:54:35;6.30;99.90
15231;DHT22;32569;51.762;8.564;2023-02-01T11:57:20;6.40;99.90
15231;DHT22;32569;51.762;8.564;2023-02-01T12:00:01;6.30;99.90
15231;DHT22;32569;51.762;8.564;2023-02-01T12:06:12;6.30;99.90
15231;DHT22;32569;51.762;8.564;2023-02-01T12:11:48;6.30;99.90
15231;DHT22;32569;51.762;8.564;2023-02-01T12:14:33;6.30;99.90
15231;DHT22;32569;51.762;8.564;2023-02-01T12:17:25;6.20;99.90
15231;DHT22;32569;51.762;8.564;2023-02-01T12:20:14;6.20;99.90
15231;DHT22;32569;51.762;8.564;2023-02-01T12:22:59;6.10;99.90
15231;DHT22;32569;51.762;8.564;2023-02-01T12:25:54;6.10;99.90
15231;DHT22;32569;51.762;8.564;2023-02-01T12:28:39;6.10;99.90
15231;DHT22;32569;51.762;8.564;2023-02-01T12:31:32;6.10;99.90
15231;DHT22;32569;51.762;8.564;2023-02-01T12:34:13;6.00;99.90
15231;DHT22;32569;51.762;8.564;2023-02-01T12:36:49;6.00;99.90
15231;DHT22;32569;51.762;8.564;2023-02-01T12:39:23;5.90;99.90
15231;DHT22;32569;51.762;8.564;2023-02-01T12:42:08;5.90;99.90
15231;DHT22;32569;51.762;8.564;2023-02-01T12:44:41;5.80;99.90
15231;DHT22;32569;51.762;8.564;2023-02-01T12:47:17;5.80;99.90
15231;DHT22;32569;51.762;8.564;2023-02-01T12:50:01;5.80;99.90
15231;DHT22;32569;51.762;8.564;2023-02-01T12:52:35;5.70;99.90
15231;DHT22;32569;51.762;8.564;2023-02-01T12:55:13;5.70;99.90
15231;DHT22;32569;51.762;8.564;2023-02-01T12:57:46;5.70;99.90
15231;DHT22;32569;51.762;8.564;2023-02-01T13:00:22;5.70;99.90
15231;DHT22;32569;51.762;8.564;2023-02-01T13:02:56;5.60;99.90
15231;DHT22;32569;51.762;8.564;2023-02-01T13:05:36;5.70;99.90
15231;DHT22;32569;51.762;8.564;2023-02-01T13:08:11;5.50;99.90
15231;DHT22;32569;51.762;8.564;2023-02-01T13:10:45;5.50;99.90
15231;DHT22;32569;51.762;8.564;2023-02-01T13:13:20;5.40;99.90
15231;DHT22;32569;51.762;8.564;2023-02-01T13:15:55;5.40;99.90
15231;DHT22;32569;51.762;8.564;2023-02-01T13:18:26;5.30;99.90
15231;DHT22;32569;51.762;8.564;2023-02-01T13:21:02;5.30;99.90
15231;DHT22;32569;51.762;8.564;2023-02-01T13:23:33;5.30;99.90
15231;DHT22;32569;51.762;8.564;2023-02-01T13:26:02;5.30;99.90
15231;DHT22;32569;51.762;8.564;2023-02-01T13:28:36;5.40;99.90
15231;DHT22;32569;51.762;8.564;2023-02-01T13:31:20;5.40;99.90
15231;DHT22;32569;51.762;8.564;2023-02-01T13:33:59;5.50;99.90
15231;DHT22;32569;51.762;8.564;2023-02-01T13:36:52;5.40;99.90
15231;DHT22;32569;51.762;8.564;2023-02-01T13:39:45;5.50;99.90
15231;DHT22;32569;51.762;8.564;2023-02-01T13:42:18;5.50;99.90
15231;DHT22;32569;51.762;8.564;2023-02-01T13:44:49;5.50;99.90
15231;DHT22;32569;51.762;8.564;2023-02-01T13:47:26;5.50;99.90
15231;DHT22;32569;51.762;8.564;2023-02-01T13:49:59;5.50;99.90
15231;DHT22;32569;51.762;8.564;2023-02-01T13:52:35;5.60;99.90
15231;DHT22;32569;51.762;8.564;2023-02-01T13:55:27;5.70;99.90
15231;DHT22;32569;51.762;8.564;2023-02-01T13:58:10;5.70;99.90
15231;DHT22;32569;51.762;8.564;2023-02-01T14:00:39;5.80;99.90
15231;DHT22;32569;51.762;8.564;2023-02-01T14:03:44;5.80;99.90
15231;DHT22;32569;51.762;8.564;2023-02-01T14:06:37;5.70;99.90
15231;DHT22;32569;51.762;8.564;2023-02-01T14:09:30;5.80;99.90
15231;DHT22;32569;51.762;8.564;2023-02-01T14:15:19;5.90;99.90
15231;DHT22;32569;51.762;8.564;2023-02-01T14:17:57;5.90;99.90
15231;DHT22;32569;51.762;8.564;2023-02-01T14:20:45;5.90;99.90
15231;DHT22;32569;51.762;8.564;2023-02-01T14:23:30;5.90;99.90
15231;DHT22;32569;51.762;8.564;2023-02-01T14:26:13;5.90;99.90
15231;DHT22;32569;51.762;8.564;2023-02-01T14:28:43;6.00;99.90
15231;DHT22;32569;51.762;8.564;2023-02-01T14:31:35;6.10;99.90
15231;DHT22;32569;51.762;8.564;2023-02-01T14:34:12;6.10;99.90
15231;DHT22;32569;51.762;8.564;2023-02-01T14:36:46;6.10;99.90
15231;DHT22;32569;51.762;8.564;2023-02-01T14:39:24;6.10;99.90
15231;DHT22;32569;51.762;8.564;2023-02-01T14:41:54;6.20;99.90
15231;DHT22;32569;51.762;8.564;2023-02-01T14:44:30;6.20;99.90
15231;DHT22;32569;51.762;8.564;2023-02-01T14:47:44;6.20;99.90
15231;DHT22;32569;51.762;8.564;2023-02-01T14:50:29;6.30;99.90
15231;DHT22;32569;51.762;8.564;2023-02-01T14:53:06;6.30;99.90
15231;DHT22;32569;51.762;8.564;2023-02-01T14:55:41;6.40;99.90
15231;DHT22;32569;51.762;8.564;2023-02-01T14:58:15;6.40;99.90
15231;DHT22;32569;51.762;8.564;2023-02-01T15:00:50;6.30;99.90
15231;DHT22;32569;51.762;8.564;2023-02-01T15:03:30;6.40;99.90
15231;DHT22;32569;51.762;8.564;2023-02-01T15:06:00;6.40;99.90
15231;DHT22;32569;51.762;8.564;2023-02-01T15:08:30;6.40;99.90
15231;DHT22;32569;51.762;8.564;2023-02-01T15:10:59;6.40;99.90
15231;DHT22;32569;51.762;8.564;2023-02-01T15:13:28;6.30;99.90
15231;DHT22;32569;51.762;8.564;2023-02-01T15:16:02;6.40;99.90
15231;DHT22;32569;51.762;8.564;2023-02-01T15:18:31;6.40;99.90
15231;DHT22;32569;51.762;8.564;2023-02-01T15:20:59;6.40;99.90
15231;DHT22;32569;51.762;8.564;2023-02-01T15:23:27;6.10;99.90
15231;DHT22;32569;51.762;8.564;2023-02-01T15:25:54;4.40;99.90
15231;DHT22;32569;51.762;8.564;2023-02-01T15:28:22;3.80;99.90
15231;DHT22;32569;51.762;8.564;2023-02-01T15:30:55;3.50;99.90
15231;DHT22;32569;51.762;8.564;2023-02-01T15:33:22;3.30;99.90
15231;DHT22;32569;51.762;8.564;2023-02-01T15:35:51;3.50;99.90
15231;DHT22;32569;51.762;8.564;2023-02-01T15:38:30;3.80;99.90
15231;DHT22;32569;51.762;8.564;2023-02-01T15:40:59;4.10;99.90
15231;DHT22;32569;51.762;8.564;2023-02-01T15:43:27;4.30;99.90
15231;DHT22;32569;51.762;8.564;2023-02-01T15:45:59;4.60;99.90
15231;DHT22;32569;51.762;8.564;2023-02-01T15:48:28;4.70;99.90
15231;DHT22;32569;51.762;8.564;2023-02-01T15:51:00;4.80;99.90
15231;DHT22;32569;51.762;8.564;2023-02-01T15:53:27;4.90;99.90
15231;DHT22;32569;51.762;8.564;2023-02-01T15:55:59;4.80;99.90
15231;DHT22;32569;51.762;8.564;2023-02-01T15:58:27;4.80;99.90
15231;DHT22;32569;51.762;8.564;2023-02-01T16:00:56;4.90;99.90
15231;DHT22;32569;51.762;8.564;2023-02-01T16:03:27;5.00;99.90
15231;DHT22;32569;51.762;8.564;2023-02-01T16:05:56;5.20;99.90
15231;DHT22;32569;51.762;8.564;2023-02-01T16:08:26;5.30;99.90
15231;DHT22;32569;51.762;8.564;2023-02-01T16:10:54;5.30;99.90
15231;DHT22;32569;51.762;8.564;2023-02-01T16:13:26;5.40;99.90
15231;DHT22;32569;51.762;8.564;2023-02-01T16:15:52;5.30;99.90
15231;DHT22;32569;51.762;8.564;2023-02-01T16:18:19;5.10;99.90
15231;DHT22;32569;51.762;8.564;2023-02-01T16:20:47;5.00;99.90
15231;DHT22;32569;51.762;8.564;2023-02-01T16:23:14;5.00;99.90
15231;DHT22;32569;51.762;8.564;2023-02-01T16:25:42;4.90;99.90
15231;DHT22;32569;51.762;8.564;2023-02-01T16:28:11;4.70;99.90
15231;DHT22;32569;51.762;8.564;2023-02-01T16:30:38;4.50;99.90